CCM93UH LFPO-LFKC
Flight info
| Callsign | CCM93UH |
|---|---|
| Flight time | 1h 19m |
| Altitude | 35000 |
| Route | LATRA DCT LAMUT DCT UTUVA DCT TITVA DCT NOQAS DCT OTROT DCT RETNO DCT KOLON DCT NARTI UP991 NIRDO |
| Aircraft | A320/M-SDE3FGHIRWY/LB1 |
Departure
| Time | 2026-04-15 14:36 |
|---|---|
| Airport | Paris-Orly Airport (LFPO) |
Arrival
| Time | 2026-04-15 15:56 |
|---|---|
| Airport | Calvi Sainte Catherine Airport (LFKC) |
| Time | Latitude | Longitude | Altitude | Speed | Heading |
|---|---|---|---|---|---|
| 2026-04-15 11:03 | 48.72666 | 2.35412 | 302 ft | 0 kts | 293° |
| 2026-04-15 14:28 | 48.72665 | 2.35415 | 296 ft | 2 kts | 293° |
| 2026-04-15 14:28 | 48.72655 | 2.35451 | 302 ft | 4 kts | 293° |
| 2026-04-15 14:29 | 48.72644 | 2.35488 | 300 ft | 4 kts | 294° |
| 2026-04-15 14:29 | 48.72631 | 2.35521 | 301 ft | 4 kts | 325° |
| 2026-04-15 14:29 | 48.72608 | 2.35536 | 298 ft | 4 kts | 344° |
| 2026-04-15 14:29 | 48.72600 | 2.35539 | 299 ft | 0 kts | 344° |
| 2026-04-15 14:32 | 48.72611 | 2.35535 | 299 ft | 8 kts | 344° |
| 2026-04-15 14:32 | 48.72713 | 2.35492 | 298 ft | 17 kts | 345° |
| 2026-04-15 14:32 | 48.72815 | 2.35450 | 300 ft | 14 kts | 345° |
| 2026-04-15 14:32 | 48.72896 | 2.35398 | 301 ft | 12 kts | 321° |
| 2026-04-15 14:33 | 48.72964 | 2.35362 | 300 ft | 10 kts | 13° |
| 2026-04-15 14:33 | 48.73031 | 2.35398 | 300 ft | 14 kts | 19° |
| 2026-04-15 14:33 | 48.73124 | 2.35446 | 301 ft | 13 kts | 18° |
| 2026-04-15 14:33 | 48.73181 | 2.35470 | 300 ft | 12 kts | 12° |
| 2026-04-15 14:34 | 48.73221 | 2.35470 | 297 ft | 0 kts | 345° |
| 2026-04-15 14:34 | 48.73222 | 2.35469 | 297 ft | 1 kts | 345° |
| 2026-04-15 14:34 | 48.73263 | 2.35423 | 300 ft | 11 kts | 307° |
| 2026-04-15 14:35 | 48.73268 | 2.35286 | 299 ft | 15 kts | 245° |
| 2026-04-15 14:35 | 48.73258 | 2.35256 | 298 ft | 6 kts | 242° |
| 2026-04-15 14:35 | 48.73113 | 2.34849 | 299 ft | 80 kts | 242° |
| 2026-04-15 14:35 | 48.72752 | 2.33828 | 301 ft | 137 kts | 242° |
| 2026-04-15 14:36 | 48.72257 | 2.32417 | 642 ft | 154 kts | 241° |
| 2026-04-15 14:36 | 48.71731 | 2.30986 | 1322 ft | 157 kts | 236° |
| 2026-04-15 14:36 | 48.71123 | 2.29523 | 1816 ft | 175 kts | 236° |
| 2026-04-15 14:36 | 48.70416 | 2.27879 | 2180 ft | 199 kts | 236° |
| 2026-04-15 14:37 | 48.69606 | 2.26021 | 2562 ft | 223 kts | 236° |
| 2026-04-15 14:37 | 48.68715 | 2.23968 | 3091 ft | 240 kts | 236° |
| 2026-04-15 14:37 | 48.67792 | 2.21825 | 3951 ft | 246 kts | 237° |
| 2026-04-15 14:37 | 48.66818 | 2.19685 | 4873 ft | 249 kts | 229° |
| 2026-04-15 14:38 | 48.65324 | 2.18326 | 5727 ft | 262 kts | 195° |
| 2026-04-15 14:38 | 48.63476 | 2.18505 | 6602 ft | 275 kts | 166° |
| 2026-04-15 14:38 | 48.61704 | 2.19605 | 7448 ft | 279 kts | 161° |
| 2026-04-15 14:38 | 48.59918 | 2.20767 | 8329 ft | 281 kts | 160° |
| 2026-04-15 14:39 | 48.58113 | 2.21938 | 9213 ft | 284 kts | 160° |
| 2026-04-15 14:39 | 48.56290 | 2.23116 | 10108 ft | 286 kts | 160° |
| 2026-04-15 14:39 | 48.54422 | 2.24318 | 10637 ft | 302 kts | 160° |
| 2026-04-15 14:39 | 48.52410 | 2.25608 | 10901 ft | 326 kts | 160° |
| 2026-04-15 14:40 | 48.50250 | 2.26994 | 11124 ft | 348 kts | 160° |
| 2026-04-15 14:40 | 48.47993 | 2.28448 | 11670 ft | 356 kts | 160° |
| 2026-04-15 14:40 | 48.45702 | 2.29928 | 12353 ft | 360 kts | 160° |
| 2026-04-15 14:40 | 48.43385 | 2.31425 | 13058 ft | 364 kts | 160° |
| 2026-04-15 14:41 | 48.41047 | 2.32934 | 13755 ft | 368 kts | 160° |
| 2026-04-15 14:41 | 48.38680 | 2.34457 | 14374 ft | 372 kts | 160° |
| 2026-04-15 14:41 | 48.36292 | 2.35990 | 14979 ft | 375 kts | 160° |
| 2026-04-15 14:41 | 48.33878 | 2.37535 | 15590 ft | 379 kts | 161° |
| 2026-04-15 14:42 | 48.31441 | 2.39091 | 16205 ft | 382 kts | 161° |
| 2026-04-15 14:42 | 48.28986 | 2.40658 | 16803 ft | 385 kts | 161° |
| 2026-04-15 14:42 | 48.26492 | 2.42161 | 17401 ft | 388 kts | 163° |
| 2026-04-15 14:42 | 48.23948 | 2.43559 | 18011 ft | 391 kts | 165° |
| 2026-04-15 14:43 | 48.21366 | 2.44901 | 18599 ft | 394 kts | 165° |
| 2026-04-15 14:43 | 48.18796 | 2.46207 | 19092 ft | 397 kts | 165° |
| 2026-04-15 14:43 | 48.16161 | 2.47546 | 19585 ft | 401 kts | 165° |
| 2026-04-15 14:43 | 48.13513 | 2.48907 | 20107 ft | 404 kts | 165° |
| 2026-04-15 14:44 | 48.10850 | 2.50295 | 20624 ft | 406 kts | 165° |
| 2026-04-15 14:44 | 48.08173 | 2.51709 | 21120 ft | 409 kts | 165° |
| 2026-04-15 14:44 | 48.05478 | 2.53107 | 21615 ft | 411 kts | 165° |
| 2026-04-15 14:44 | 48.02762 | 2.54471 | 22102 ft | 413 kts | 166° |
| 2026-04-15 14:45 | 48.00022 | 2.55816 | 22523 ft | 416 kts | 166° |
| 2026-04-15 14:45 | 47.97256 | 2.57157 | 22937 ft | 420 kts | 166° |
| 2026-04-15 14:45 | 47.94462 | 2.58508 | 23365 ft | 423 kts | 166° |
| 2026-04-15 14:45 | 47.91655 | 2.59870 | 23788 ft | 426 kts | 166° |
| 2026-04-15 14:46 | 47.88870 | 2.61230 | 24135 ft | 428 kts | 165° |
| 2026-04-15 14:46 | 47.86031 | 2.62626 | 24501 ft | 430 kts | 165° |
| 2026-04-15 14:46 | 47.83189 | 2.64028 | 24863 ft | 431 kts | 165° |
| 2026-04-15 14:46 | 47.80325 | 2.65433 | 25198 ft | 433 kts | 166° |
| 2026-04-15 14:47 | 47.77452 | 2.66836 | 25536 ft | 435 kts | 166° |
| 2026-04-15 14:47 | 47.74565 | 2.68245 | 25804 ft | 438 kts | 166° |
| 2026-04-15 14:47 | 47.71693 | 2.69648 | 26092 ft | 441 kts | 166° |
| 2026-04-15 14:47 | 47.68772 | 2.71077 | 26404 ft | 443 kts | 166° |
| 2026-04-15 14:48 | 47.65838 | 2.72510 | 26722 ft | 444 kts | 166° |
| 2026-04-15 14:48 | 47.62892 | 2.73943 | 27029 ft | 446 kts | 166° |
| 2026-04-15 14:48 | 47.59936 | 2.75375 | 27325 ft | 448 kts | 166° |
| 2026-04-15 14:48 | 47.56969 | 2.76812 | 27615 ft | 449 kts | 166° |
| 2026-04-15 14:49 | 47.53990 | 2.78253 | 27871 ft | 451 kts | 166° |
| 2026-04-15 14:49 | 47.50997 | 2.79696 | 28129 ft | 453 kts | 166° |
| 2026-04-15 14:49 | 47.47993 | 2.81141 | 28380 ft | 455 kts | 166° |
| 2026-04-15 14:49 | 47.44976 | 2.82592 | 28633 ft | 456 kts | 166° |
| 2026-04-15 14:50 | 47.42976 | 2.83554 | 28792 ft | 457 kts | 166° |
| 2026-04-15 14:50 | 47.39947 | 2.85009 | 29090 ft | 457 kts | 166° |
| 2026-04-15 14:50 | 47.35948 | 2.86932 | 29546 ft | 455 kts | 166° |
| 2026-04-15 14:50 | 47.32939 | 2.88380 | 29851 ft | 455 kts | 166° |
| 2026-04-15 14:51 | 47.29927 | 2.89823 | 30161 ft | 455 kts | 166° |
| 2026-04-15 14:51 | 47.27885 | 2.90798 | 30312 ft | 457 kts | 166° |
| 2026-04-15 14:51 | 47.24855 | 2.92243 | 30522 ft | 458 kts | 166° |
| 2026-04-15 14:51 | 47.21819 | 2.93693 | 30767 ft | 458 kts | 166° |
| 2026-04-15 14:52 | 47.18830 | 2.95125 | 31043 ft | 458 kts | 166° |
| 2026-04-15 14:52 | 47.15803 | 2.96579 | 31331 ft | 457 kts | 166° |
| 2026-04-15 14:52 | 47.12781 | 2.98025 | 31604 ft | 457 kts | 166° |
| 2026-04-15 14:52 | 47.09755 | 2.99430 | 31872 ft | 456 kts | 167° |
| 2026-04-15 14:53 | 47.06717 | 3.00736 | 32159 ft | 454 kts | 168° |
| 2026-04-15 14:53 | 47.03668 | 3.01973 | 32445 ft | 453 kts | 169° |
| 2026-04-15 14:53 | 47.00626 | 3.03173 | 32728 ft | 452 kts | 169° |
| 2026-04-15 14:53 | 46.97589 | 3.04366 | 33024 ft | 452 kts | 169° |
| 2026-04-15 14:54 | 46.94560 | 3.05574 | 33305 ft | 451 kts | 169° |
| 2026-04-15 14:54 | 46.91533 | 3.06803 | 33562 ft | 451 kts | 168° |
| 2026-04-15 14:54 | 46.88508 | 3.08043 | 33819 ft | 452 kts | 168° |
| 2026-04-15 14:54 | 46.85482 | 3.09288 | 34094 ft | 451 kts | 168° |
| 2026-04-15 14:55 | 46.82458 | 3.10535 | 34355 ft | 451 kts | 168° |
| 2026-04-15 14:55 | 46.79477 | 3.11760 | 34608 ft | 450 kts | 168° |
| 2026-04-15 14:55 | 46.76458 | 3.12993 | 34867 ft | 449 kts | 169° |
| 2026-04-15 14:55 | 46.73445 | 3.14216 | 35101 ft | 449 kts | 169° |
| 2026-04-15 14:56 | 46.70417 | 3.15444 | 35184 ft | 450 kts | 169° |
| 2026-04-15 14:56 | 46.64363 | 3.17901 | 35204 ft | 451 kts | 169° |
| 2026-04-15 14:57 | 46.58340 | 3.20341 | 35204 ft | 451 kts | 169° |
| 2026-04-15 14:57 | 46.52269 | 3.22807 | 35177 ft | 452 kts | 168° |
| 2026-04-15 14:58 | 46.46195 | 3.25255 | 35204 ft | 457 kts | 168° |
| 2026-04-15 14:58 | 46.40049 | 3.27725 | 35200 ft | 457 kts | 168° |
| 2026-04-15 14:59 | 46.33939 | 3.30178 | 35199 ft | 458 kts | 168° |
| 2026-04-15 14:59 | 46.27787 | 3.32643 | 35185 ft | 458 kts | 168° |
| 2026-04-15 15:00 | 46.21620 | 3.35118 | 35183 ft | 459 kts | 168° |
| 2026-04-15 15:00 | 46.15489 | 3.37560 | 35187 ft | 459 kts | 168° |
| 2026-04-15 15:01 | 46.09321 | 3.40007 | 35181 ft | 460 kts | 168° |
| 2026-04-15 15:01 | 46.03171 | 3.42442 | 35184 ft | 460 kts | 168° |
| 2026-04-15 15:02 | 45.96968 | 3.44900 | 35189 ft | 461 kts | 168° |
| 2026-04-15 15:02 | 45.90811 | 3.47346 | 35190 ft | 461 kts | 168° |
| 2026-04-15 15:03 | 45.84787 | 3.50640 | 35194 ft | 468 kts | 153° |
| 2026-04-15 15:03 | 45.79293 | 3.55739 | 35194 ft | 470 kts | 149° |
| 2026-04-15 15:04 | 45.73859 | 3.60864 | 35189 ft | 470 kts | 150° |
| 2026-04-15 15:04 | 45.68378 | 3.66007 | 35176 ft | 470 kts | 149° |
| 2026-04-15 15:05 | 45.62902 | 3.71137 | 35175 ft | 471 kts | 149° |
| 2026-04-15 15:05 | 45.57446 | 3.76242 | 35176 ft | 471 kts | 149° |
| 2026-04-15 15:06 | 45.49193 | 3.83940 | 35176 ft | 472 kts | 149° |
| 2026-04-15 15:06 | 45.43685 | 3.89065 | 35168 ft | 473 kts | 149° |
| 2026-04-15 15:07 | 45.38203 | 3.94287 | 35168 ft | 475 kts | 143° |
| 2026-04-15 15:07 | 45.33660 | 4.01086 | 35164 ft | 479 kts | 127° |
| 2026-04-15 15:08 | 45.29750 | 4.08798 | 35162 ft | 480 kts | 127° |
| 2026-04-15 15:08 | 45.25845 | 4.16438 | 35161 ft | 481 kts | 127° |
| 2026-04-15 15:09 | 45.21897 | 4.24119 | 35166 ft | 481 kts | 127° |
| 2026-04-15 15:09 | 45.17943 | 4.31786 | 35166 ft | 482 kts | 126° |
| 2026-04-15 15:10 | 45.13989 | 4.39450 | 35165 ft | 482 kts | 126° |
| 2026-04-15 15:10 | 45.09975 | 4.47060 | 35153 ft | 482 kts | 129° |
| 2026-04-15 15:11 | 45.05663 | 4.54264 | 35155 ft | 482 kts | 132° |
| 2026-04-15 15:11 | 45.01157 | 4.61329 | 35159 ft | 482 kts | 131° |
| 2026-04-15 15:12 | 44.98105 | 4.66155 | 35154 ft | 483 kts | 131° |
| 2026-04-15 15:12 | 44.93720 | 4.73262 | 35151 ft | 483 kts | 130° |
| 2026-04-15 15:13 | 44.89330 | 4.80442 | 35152 ft | 483 kts | 130° |
| 2026-04-15 15:13 | 44.84912 | 4.87612 | 35149 ft | 483 kts | 130° |
| 2026-04-15 15:14 | 44.80479 | 4.94759 | 35150 ft | 484 kts | 130° |
| 2026-04-15 15:14 | 44.76062 | 5.01850 | 35154 ft | 484 kts | 130° |
| 2026-04-15 15:15 | 44.71610 | 5.08980 | 35155 ft | 484 kts | 130° |
| 2026-04-15 15:15 | 44.67192 | 5.16056 | 35149 ft | 484 kts | 130° |
| 2026-04-15 15:16 | 44.62731 | 5.23193 | 35132 ft | 484 kts | 130° |
| 2026-04-15 15:16 | 44.58302 | 5.30249 | 35125 ft | 484 kts | 130° |
| 2026-04-15 15:17 | 44.53838 | 5.37338 | 35125 ft | 484 kts | 129° |
| 2026-04-15 15:17 | 44.49375 | 5.44402 | 35124 ft | 484 kts | 129° |
| 2026-04-15 15:18 | 44.44939 | 5.51408 | 35104 ft | 483 kts | 129° |
| 2026-04-15 15:18 | 44.40472 | 5.58452 | 35105 ft | 484 kts | 129° |
| 2026-04-15 15:19 | 44.36304 | 5.65829 | 35085 ft | 481 kts | 121° |
| 2026-04-15 15:19 | 44.32583 | 5.73538 | 35102 ft | 481 kts | 121° |
| 2026-04-15 15:20 | 44.28825 | 5.81286 | 35089 ft | 480 kts | 121° |
| 2026-04-15 15:20 | 44.25063 | 5.88988 | 35082 ft | 480 kts | 121° |
| 2026-04-15 15:21 | 44.21323 | 5.96626 | 35074 ft | 480 kts | 121° |
| 2026-04-15 15:22 | 44.18588 | 6.02234 | 35062 ft | 479 kts | 121° |
| 2026-04-15 15:22 | 44.14845 | 6.09869 | 35083 ft | 479 kts | 121° |
| 2026-04-15 15:23 | 44.11069 | 6.17529 | 35075 ft | 478 kts | 121° |
| 2026-04-15 15:23 | 44.07293 | 6.25172 | 35083 ft | 478 kts | 121° |
| 2026-04-15 15:24 | 44.03532 | 6.32774 | 35089 ft | 478 kts | 120° |
| 2026-04-15 15:24 | 43.99770 | 6.40356 | 35004 ft | 479 kts | 121° |
| 2026-04-15 15:25 | 43.97877 | 6.44156 | 34750 ft | 478 kts | 121° |
| 2026-04-15 15:25 | 43.95974 | 6.47970 | 34531 ft | 478 kts | 120° |
| 2026-04-15 15:25 | 43.94078 | 6.51766 | 34301 ft | 478 kts | 120° |
| 2026-04-15 15:25 | 43.92183 | 6.55560 | 34079 ft | 478 kts | 120° |
| 2026-04-15 15:26 | 43.90303 | 6.59314 | 33805 ft | 479 kts | 120° |
| 2026-04-15 15:26 | 43.88396 | 6.63124 | 33533 ft | 479 kts | 120° |
| 2026-04-15 15:26 | 43.86497 | 6.66924 | 33264 ft | 479 kts | 120° |
| 2026-04-15 15:26 | 43.84594 | 6.70726 | 33005 ft | 480 kts | 120° |
| 2026-04-15 15:27 | 43.82683 | 6.74539 | 32744 ft | 481 kts | 120° |
| 2026-04-15 15:27 | 43.80794 | 6.78298 | 32489 ft | 481 kts | 120° |
| 2026-04-15 15:27 | 43.78877 | 6.82102 | 32231 ft | 482 kts | 120° |
| 2026-04-15 15:27 | 43.76951 | 6.85923 | 31996 ft | 482 kts | 120° |
| 2026-04-15 15:28 | 43.75026 | 6.89738 | 31748 ft | 481 kts | 120° |
| 2026-04-15 15:28 | 43.73123 | 6.93497 | 31503 ft | 482 kts | 120° |
| 2026-04-15 15:28 | 43.71055 | 6.97179 | 31249 ft | 486 kts | 126° |
| 2026-04-15 15:28 | 43.68851 | 7.00730 | 31000 ft | 487 kts | 126° |
| 2026-04-15 15:29 | 43.66643 | 7.04277 | 30756 ft | 488 kts | 126° |
| 2026-04-15 15:29 | 43.64421 | 7.07831 | 30515 ft | 488 kts | 126° |
| 2026-04-15 15:29 | 43.62193 | 7.11391 | 30275 ft | 489 kts | 126° |
| 2026-04-15 15:29 | 43.59998 | 7.14895 | 30034 ft | 490 kts | 126° |
| 2026-04-15 15:30 | 43.57760 | 7.18469 | 29755 ft | 490 kts | 126° |
| 2026-04-15 15:30 | 43.55625 | 7.22139 | 29472 ft | 486 kts | 119° |
| 2026-04-15 15:30 | 43.53905 | 7.26113 | 29195 ft | 480 kts | 111° |
| 2026-04-15 15:30 | 43.52519 | 7.30282 | 28925 ft | 478 kts | 109° |
| 2026-04-15 15:31 | 43.51169 | 7.34407 | 28646 ft | 479 kts | 109° |
| 2026-04-15 15:31 | 43.49798 | 7.38593 | 28153 ft | 479 kts | 109° |
| 2026-04-15 15:31 | 43.48423 | 7.42782 | 27681 ft | 479 kts | 109° |
| 2026-04-15 15:31 | 43.47039 | 7.46973 | 27218 ft | 480 kts | 109° |
| 2026-04-15 15:32 | 43.45646 | 7.51167 | 26766 ft | 480 kts | 109° |
| 2026-04-15 15:32 | 43.44257 | 7.55336 | 26311 ft | 478 kts | 110° |
| 2026-04-15 15:32 | 43.42872 | 7.59487 | 25892 ft | 474 kts | 110° |
| 2026-04-15 15:32 | 43.41509 | 7.63576 | 25462 ft | 468 kts | 110° |
| 2026-04-15 15:33 | 43.40164 | 7.67623 | 25029 ft | 463 kts | 110° |
| 2026-04-15 15:33 | 43.38844 | 7.71592 | 24611 ft | 460 kts | 110° |
| 2026-04-15 15:33 | 43.37509 | 7.75591 | 24193 ft | 456 kts | 110° |
| 2026-04-15 15:33 | 43.36190 | 7.79541 | 23796 ft | 452 kts | 110° |
| 2026-04-15 15:34 | 43.34877 | 7.83459 | 23319 ft | 448 kts | 110° |
| 2026-04-15 15:34 | 43.33588 | 7.87299 | 22839 ft | 445 kts | 111° |
| 2026-04-15 15:34 | 43.32298 | 7.91150 | 22360 ft | 442 kts | 111° |
| 2026-04-15 15:34 | 43.31012 | 7.94983 | 21891 ft | 439 kts | 111° |
| 2026-04-15 15:35 | 43.29745 | 7.98744 | 21444 ft | 436 kts | 112° |
| 2026-04-15 15:35 | 43.28471 | 8.02518 | 20985 ft | 433 kts | 112° |
| 2026-04-15 15:35 | 43.27206 | 8.06258 | 20538 ft | 430 kts | 112° |
| 2026-04-15 15:35 | 43.25948 | 8.09975 | 20066 ft | 427 kts | 112° |
| 2026-04-15 15:36 | 43.24699 | 8.13664 | 19603 ft | 425 kts | 112° |
| 2026-04-15 15:36 | 43.23456 | 8.17335 | 19150 ft | 422 kts | 112° |
| 2026-04-15 15:36 | 43.22640 | 8.19743 | 18845 ft | 421 kts | 112° |
| 2026-04-15 15:36 | 43.21005 | 8.24556 | 18243 ft | 418 kts | 112° |
| 2026-04-15 15:37 | 43.19781 | 8.28154 | 17738 ft | 415 kts | 113° |
| 2026-04-15 15:37 | 43.18969 | 8.30540 | 17404 ft | 413 kts | 113° |
| 2026-04-15 15:37 | 43.17755 | 8.34099 | 16907 ft | 410 kts | 113° |
| 2026-04-15 15:37 | 43.16553 | 8.37619 | 16419 ft | 404 kts | 113° |
| 2026-04-15 15:38 | 43.14990 | 8.42180 | 15764 ft | 390 kts | 114° |
| 2026-04-15 15:38 | 43.14105 | 8.44283 | 15433 ft | 378 kts | 122° |
| 2026-04-15 15:38 | 43.12569 | 8.47161 | 14972 ft | 372 kts | 124° |
| 2026-04-15 15:38 | 43.11046 | 8.49992 | 14546 ft | 367 kts | 124° |
| 2026-04-15 15:39 | 43.09539 | 8.52795 | 14118 ft | 363 kts | 124° |
| 2026-04-15 15:39 | 43.08048 | 8.55566 | 13673 ft | 359 kts | 124° |
| 2026-04-15 15:39 | 43.06580 | 8.58293 | 13188 ft | 350 kts | 124° |
| 2026-04-15 15:39 | 43.05165 | 8.60913 | 12716 ft | 334 kts | 124° |
| 2026-04-15 15:40 | 43.03810 | 8.63414 | 12253 ft | 320 kts | 124° |
| 2026-04-15 15:40 | 43.02505 | 8.65820 | 11799 ft | 309 kts | 124° |
| 2026-04-15 15:40 | 43.01247 | 8.68143 | 11349 ft | 301 kts | 124° |
| 2026-04-15 15:40 | 43.00011 | 8.70428 | 10902 ft | 297 kts | 124° |
| 2026-04-15 15:41 | 42.98789 | 8.72692 | 10480 ft | 294 kts | 124° |
| 2026-04-15 15:41 | 42.97571 | 8.74947 | 10055 ft | 296 kts | 124° |
| 2026-04-15 15:41 | 42.96230 | 8.77063 | 9703 ft | 294 kts | 138° |
| 2026-04-15 15:41 | 42.94499 | 8.78518 | 9441 ft | 293 kts | 156° |
| 2026-04-15 15:42 | 42.92516 | 8.79155 | 9170 ft | 295 kts | 175° |
| 2026-04-15 15:42 | 42.90489 | 8.79189 | 8852 ft | 296 kts | 178° |
| 2026-04-15 15:42 | 42.88431 | 8.79200 | 8427 ft | 296 kts | 178° |
| 2026-04-15 15:42 | 42.86368 | 8.79204 | 7997 ft | 296 kts | 178° |
| 2026-04-15 15:43 | 42.84318 | 8.79205 | 7563 ft | 292 kts | 178° |
| 2026-04-15 15:43 | 42.82329 | 8.79202 | 7134 ft | 280 kts | 178° |
| 2026-04-15 15:43 | 42.80415 | 8.79198 | 6714 ft | 271 kts | 177° |
| 2026-04-15 15:43 | 42.78559 | 8.79195 | 6278 ft | 263 kts | 177° |
| 2026-04-15 15:44 | 42.76767 | 8.79332 | 5858 ft | 255 kts | 162° |
| 2026-04-15 15:44 | 42.75191 | 8.80331 | 5424 ft | 248 kts | 137° |
| 2026-04-15 15:44 | 42.74126 | 8.82083 | 5144 ft | 235 kts | 112° |
| 2026-04-15 15:44 | 42.73694 | 8.84156 | 4896 ft | 224 kts | 90° |
| 2026-04-15 15:45 | 42.73890 | 8.86226 | 4636 ft | 220 kts | 69° |
| 2026-04-15 15:45 | 42.74646 | 8.88023 | 4216 ft | 222 kts | 47° |
| 2026-04-15 15:45 | 42.75877 | 8.89293 | 3774 ft | 226 kts | 26° |
| 2026-04-15 15:45 | 42.77385 | 8.89822 | 3489 ft | 223 kts | 8° |
| 2026-04-15 15:46 | 42.78928 | 8.89939 | 3312 ft | 221 kts | 4° |
| 2026-04-15 15:46 | 42.80472 | 8.89961 | 3206 ft | 222 kts | 2° |
| 2026-04-15 15:46 | 42.82018 | 8.89961 | 3104 ft | 222 kts | 2° |
| 2026-04-15 15:46 | 42.83565 | 8.89962 | 3003 ft | 223 kts | 2° |
| 2026-04-15 15:47 | 42.85115 | 8.89934 | 2864 ft | 223 kts | 356° |
| 2026-04-15 15:47 | 42.86611 | 8.89355 | 2724 ft | 226 kts | 335° |
| 2026-04-15 15:47 | 42.87850 | 8.88026 | 2561 ft | 231 kts | 312° |
| 2026-04-15 15:47 | 42.88603 | 8.86114 | 2430 ft | 235 kts | 287° |
| 2026-04-15 15:48 | 42.88727 | 8.83898 | 2340 ft | 238 kts | 263° |
| 2026-04-15 15:48 | 42.88161 | 8.81779 | 2238 ft | 241 kts | 236° |
| 2026-04-15 15:48 | 42.86986 | 8.80168 | 2135 ft | 239 kts | 210° |
| 2026-04-15 15:48 | 42.85457 | 8.79376 | 2046 ft | 236 kts | 185° |
| 2026-04-15 15:49 | 42.83826 | 8.79225 | 2001 ft | 234 kts | 178° |
| 2026-04-15 15:49 | 42.82175 | 8.79191 | 1947 ft | 245 kts | 177° |
| 2026-04-15 15:49 | 42.80442 | 8.79187 | 1878 ft | 253 kts | 177° |
| 2026-04-15 15:49 | 42.78679 | 8.79185 | 1763 ft | 253 kts | 177° |
| 2026-04-15 15:50 | 42.76921 | 8.79176 | 1709 ft | 253 kts | 178° |
| 2026-04-15 15:50 | 42.75163 | 8.79181 | 1708 ft | 253 kts | 177° |
| 2026-04-15 15:50 | 42.73426 | 8.79190 | 1711 ft | 253 kts | 177° |
| 2026-04-15 15:50 | 42.71667 | 8.79200 | 1711 ft | 252 kts | 178° |
| 2026-04-15 15:51 | 42.69917 | 8.79123 | 1710 ft | 252 kts | 180° |
| 2026-04-15 15:51 | 42.68157 | 8.79011 | 1713 ft | 253 kts | 182° |
| 2026-04-15 15:51 | 42.66369 | 8.78962 | 1709 ft | 261 kts | 180° |
| 2026-04-15 15:51 | 42.64538 | 8.78945 | 1708 ft | 264 kts | 181° |
| 2026-04-15 15:52 | 42.62739 | 8.78934 | 1703 ft | 247 kts | 180° |
| 2026-04-15 15:52 | 42.61112 | 8.78881 | 1705 ft | 221 kts | 187° |
| 2026-04-15 15:52 | 42.59637 | 8.78558 | 1701 ft | 215 kts | 192° |
| 2026-04-15 15:52 | 42.58188 | 8.78113 | 1713 ft | 207 kts | 195° |
| 2026-04-15 15:53 | 42.56894 | 8.77690 | 1719 ft | 178 kts | 195° |
| 2026-04-15 15:53 | 42.55765 | 8.77299 | 1720 ft | 163 kts | 195° |
| 2026-04-15 15:53 | 42.54653 | 8.77048 | 1649 ft | 161 kts | 185° |
| 2026-04-15 15:53 | 42.53553 | 8.76963 | 1558 ft | 157 kts | 180° |
| 2026-04-15 15:54 | 42.52454 | 8.76969 | 1265 ft | 160 kts | 181° |
| 2026-04-15 15:54 | 42.51339 | 8.76942 | 1112 ft | 159 kts | 185° |
| 2026-04-15 15:54 | 42.50251 | 8.76896 | 971 ft | 156 kts | 162° |
| 2026-04-15 15:54 | 42.49611 | 8.77856 | 869 ft | 137 kts | 82° |
| 2026-04-15 15:55 | 42.50067 | 8.78797 | 759 ft | 124 kts | 30° |
| 2026-04-15 15:55 | 42.50878 | 8.79236 | 495 ft | 128 kts | 11° |
| 2026-04-15 15:55 | 42.51766 | 8.79307 | 310 ft | 128 kts | 0° |
| 2026-04-15 15:55 | 42.52632 | 8.79304 | 173 ft | 118 kts | 0° |
| 2026-04-15 15:56 | 42.53202 | 8.79301 | 132 ft | 39 kts | 359° |
| 2026-04-15 15:56 | 42.53293 | 8.79299 | 127 ft | 3 kts | 278° |
| 2026-04-15 15:56 | 42.53231 | 8.79293 | 128 ft | 20 kts | 179° |
| 2026-04-15 15:56 | 42.53037 | 8.79294 | 144 ft | 28 kts | 180° |
| 2026-04-15 15:57 | 42.52875 | 8.79296 | 156 ft | 19 kts | 179° |
| 2026-04-15 15:57 | 42.52764 | 8.79299 | 161 ft | 14 kts | 178° |
| 2026-04-15 15:57 | 42.52627 | 8.79300 | 172 ft | 24 kts | 181° |
| 2026-04-15 15:57 | 42.52482 | 8.79299 | 180 ft | 18 kts | 180° |
| 2026-04-15 15:58 | 42.52431 | 8.79204 | 181 ft | 12 kts | 270° |
| 2026-04-15 15:58 | 42.52478 | 8.79163 | 179 ft | 11 kts | 14° |
| 2026-04-15 15:58 | 42.52545 | 8.79138 | 176 ft | 10 kts | 307° |
| 2026-04-15 15:58 | 42.52564 | 8.79092 | 178 ft | 0 kts | 302° |
| 2026-04-15 15:59 | 42.52567 | 8.79084 | 178 ft | 1 kts | 302° |